<?xml version="1.0" encoding="UTF-8" standalone="no" ?>
<gpx xmlns="http://www.topografix.com/GPX/1/1" xmlns:xsi="http://www.w3.org/2001/XMLSchema-instance" xsi:schemaLocation="http://www.topografix.com/GPX/1/1 http://www.topografix.com/GPX/1/1/gpx.xsd" version="1.1" creator="VisuGPX - https://www.visugpx.com">
  <metadata>
    <name>Valempoulières</name>
  </metadata>
  <trk>
    <name><![CDATA[Valempoulières_2]]></name>
    <trkseg>
      <trkpt lat="46.82035" lon="5.85893">
        <ele>648.8</ele>
        <time>2021-01-08T15:29:41Z</time>
      </trkpt>
      <trkpt lat="46.82035" lon="5.85893">
        <ele>648.8</ele>
        <time>2021-01-08T15:29:41Z</time>
      </trkpt>
      <trkpt lat="46.82036" lon="5.85886">
        <ele>645.1</ele>
        <time>2021-01-08T15:29:48Z</time>
      </trkpt>
      <trkpt lat="46.82041" lon="5.85885">
        <ele>644.2</ele>
        <time>2021-01-08T15:29:55Z</time>
      </trkpt>
      <trkpt lat="46.82046" lon="5.85885">
        <ele>642.9</ele>
        <time>2021-01-08T15:30:03Z</time>
      </trkpt>
      <trkpt lat="46.82051" lon="5.85887">
        <ele>641.6</ele>
        <time>2021-01-08T15:30:08Z</time>
      </trkpt>
      <trkpt lat="46.82056" lon="5.85888">
        <ele>641</ele>
        <time>2021-01-08T15:30:13Z</time>
      </trkpt>
      <trkpt lat="46.82061" lon="5.85886">
        <ele>640</ele>
        <time>2021-01-08T15:30:18Z</time>
      </trkpt>
      <trkpt lat="46.82067" lon="5.85886">
        <ele>639.1</ele>
        <time>2021-01-08T15:30:23Z</time>
      </trkpt>
      <trkpt lat="46.82072" lon="5.85885">
        <ele>639</ele>
        <time>2021-01-08T15:30:27Z</time>
      </trkpt>
      <trkpt lat="46.82078" lon="5.85888">
        <ele>640.3</ele>
        <time>2021-01-08T15:30:32Z</time>
      </trkpt>
      <trkpt lat="46.82083" lon="5.85891">
        <ele>642.5</ele>
        <time>2021-01-08T15:30:37Z</time>
      </trkpt>
      <trkpt lat="46.82088" lon="5.85893">
        <ele>644.6</ele>
        <time>2021-01-08T15:30:42Z</time>
      </trkpt>
      <trkpt lat="46.82094" lon="5.85895">
        <ele>644.7</ele>
        <time>2021-01-08T15:30:48Z</time>
      </trkpt>
      <trkpt lat="46.82098" lon="5.85897">
        <ele>644.8</ele>
        <time>2021-01-08T15:30:52Z</time>
      </trkpt>
      <trkpt lat="46.82103" lon="5.859">
        <ele>644.3</ele>
        <time>2021-01-08T15:30:57Z</time>
      </trkpt>
      <trkpt lat="46.82108" lon="5.85901">
        <ele>644.3</ele>
        <time>2021-01-08T15:31:01Z</time>
      </trkpt>
      <trkpt lat="46.82116" lon="5.85903">
        <ele>645.8</ele>
        <time>2021-01-08T15:31:06Z</time>
      </trkpt>
      <trkpt lat="46.82121" lon="5.85904">
        <ele>646.3</ele>
        <time>2021-01-08T15:31:11Z</time>
      </trkpt>
      <trkpt lat="46.82126" lon="5.85906">
        <ele>647.2</ele>
        <time>2021-01-08T15:31:16Z</time>
      </trkpt>
      <trkpt lat="46.82131" lon="5.85909">
        <ele>648.4</ele>
        <time>2021-01-08T15:31:20Z</time>
      </trkpt>
      <trkpt lat="46.82136" lon="5.85912">
        <ele>649.4</ele>
        <time>2021-01-08T15:31:24Z</time>
      </trkpt>
      <trkpt lat="46.82141" lon="5.85912">
        <ele>650.2</ele>
        <time>2021-01-08T15:31:28Z</time>
      </trkpt>
      <trkpt lat="46.82146" lon="5.85914">
        <ele>651.5</ele>
        <time>2021-01-08T15:31:32Z</time>
      </trkpt>
      <trkpt lat="46.82153" lon="5.85915">
        <ele>653.8</ele>
        <time>2021-01-08T15:31:37Z</time>
      </trkpt>
      <trkpt lat="46.82157" lon="5.85918">
        <ele>654.8</ele>
        <time>2021-01-08T15:32:03Z</time>
      </trkpt>
      <trkpt lat="46.82162" lon="5.8592">
        <ele>655.4</ele>
        <time>2021-01-08T15:32:07Z</time>
      </trkpt>
      <trkpt lat="46.82166" lon="5.85923">
        <ele>655.9</ele>
        <time>2021-01-08T15:32:11Z</time>
      </trkpt>
      <trkpt lat="46.82172" lon="5.85926">
        <ele>656.5</ele>
        <time>2021-01-08T15:32:16Z</time>
      </trkpt>
      <trkpt lat="46.82177" lon="5.85928">
        <ele>657.4</ele>
        <time>2021-01-08T15:32:20Z</time>
      </trkpt>
      <trkpt lat="46.82181" lon="5.8593">
        <ele>658.4</ele>
        <time>2021-01-08T15:32:24Z</time>
      </trkpt>
      <trkpt lat="46.82185" lon="5.85935">
        <ele>659.3</ele>
        <time>2021-01-08T15:32:29Z</time>
      </trkpt>
      <trkpt lat="46.8219" lon="5.85938">
        <ele>659.4</ele>
        <time>2021-01-08T15:32:34Z</time>
      </trkpt>
      <trkpt lat="46.82195" lon="5.85939">
        <ele>659</ele>
        <time>2021-01-08T15:32:38Z</time>
      </trkpt>
      <trkpt lat="46.822" lon="5.8594">
        <ele>657.9</ele>
        <time>2021-01-08T15:32:43Z</time>
      </trkpt>
      <trkpt lat="46.82204" lon="5.85942">
        <ele>656.5</ele>
        <time>2021-01-08T15:32:48Z</time>
      </trkpt>
      <trkpt lat="46.82209" lon="5.85944">
        <ele>655.7</ele>
        <time>2021-01-08T15:32:52Z</time>
      </trkpt>
      <trkpt lat="46.82214" lon="5.85947">
        <ele>654.5</ele>
        <time>2021-01-08T15:32:57Z</time>
      </trkpt>
      <trkpt lat="46.82219" lon="5.85948">
        <ele>653.9</ele>
        <time>2021-01-08T15:33:02Z</time>
      </trkpt>
      <trkpt lat="46.82223" lon="5.8595">
        <ele>653.8</ele>
        <time>2021-01-08T15:33:06Z</time>
      </trkpt>
      <trkpt lat="46.82228" lon="5.85951">
        <ele>653.3</ele>
        <time>2021-01-08T15:33:11Z</time>
      </trkpt>
      <trkpt lat="46.82233" lon="5.85954">
        <ele>652.8</ele>
        <time>2021-01-08T15:33:16Z</time>
      </trkpt>
      <trkpt lat="46.82238" lon="5.85956">
        <ele>652.3</ele>
        <time>2021-01-08T15:33:20Z</time>
      </trkpt>
      <trkpt lat="46.82242" lon="5.85958">
        <ele>651.6</ele>
        <time>2021-01-08T15:33:24Z</time>
      </trkpt>
      <trkpt lat="46.82247" lon="5.8596">
        <ele>650.6</ele>
        <time>2021-01-08T15:33:30Z</time>
      </trkpt>
      <trkpt lat="46.82251" lon="5.85964">
        <ele>647.7</ele>
        <time>2021-01-08T15:33:39Z</time>
      </trkpt>
      <trkpt lat="46.82256" lon="5.85967">
        <ele>646.5</ele>
        <time>2021-01-08T15:33:44Z</time>
      </trkpt>
      <trkpt lat="46.82261" lon="5.8597">
        <ele>645.8</ele>
        <time>2021-01-08T15:33:49Z</time>
      </trkpt>
      <trkpt lat="46.82265" lon="5.85972">
        <ele>644.8</ele>
        <time>2021-01-08T15:33:55Z</time>
      </trkpt>
      <trkpt lat="46.82271" lon="5.85974">
        <ele>644.1</ele>
        <time>2021-01-08T15:34:00Z</time>
      </trkpt>
      <trkpt lat="46.82277" lon="5.85977">
        <ele>643.9</ele>
        <time>2021-01-08T15:34:04Z</time>
      </trkpt>
      <trkpt lat="46.82286" lon="5.85982">
        <ele>644.7</ele>
        <time>2021-01-08T15:34:08Z</time>
      </trkpt>
      <trkpt lat="46.82292" lon="5.85987">
        <ele>646.7</ele>
        <time>2021-01-08T15:34:12Z</time>
      </trkpt>
      <trkpt lat="46.82297" lon="5.85992">
        <ele>649.6</ele>
        <time>2021-01-08T15:34:17Z</time>
      </trkpt>
      <trkpt lat="46.82301" lon="5.85993">
        <ele>651.1</ele>
        <time>2021-01-08T15:34:22Z</time>
      </trkpt>
      <trkpt lat="46.82305" lon="5.85999">
        <ele>651.3</ele>
        <time>2021-01-08T15:34:27Z</time>
      </trkpt>
      <trkpt lat="46.82309" lon="5.86005">
        <ele>651.4</ele>
        <time>2021-01-08T15:34:32Z</time>
      </trkpt>
      <trkpt lat="46.82311" lon="5.86011">
        <ele>651.3</ele>
        <time>2021-01-08T15:34:37Z</time>
      </trkpt>
      <trkpt lat="46.82314" lon="5.86015">
        <ele>651.4</ele>
        <time>2021-01-08T15:34:41Z</time>
      </trkpt>
      <trkpt lat="46.82318" lon="5.86021">
        <ele>651.5</ele>
        <time>2021-01-08T15:34:45Z</time>
      </trkpt>
      <trkpt lat="46.82322" lon="5.86026">
        <ele>651.4</ele>
        <time>2021-01-08T15:34:50Z</time>
      </trkpt>
      <trkpt lat="46.82326" lon="5.86032">
        <ele>651.4</ele>
        <time>2021-01-08T15:34:55Z</time>
      </trkpt>
      <trkpt lat="46.82329" lon="5.86038">
        <ele>651.2</ele>
        <time>2021-01-08T15:35:00Z</time>
      </trkpt>
      <trkpt lat="46.82332" lon="5.86044">
        <ele>650.9</ele>
        <time>2021-01-08T15:35:05Z</time>
      </trkpt>
      <trkpt lat="46.82336" lon="5.8605">
        <ele>651</ele>
        <time>2021-01-08T15:35:10Z</time>
      </trkpt>
      <trkpt lat="46.8234" lon="5.86057">
        <ele>651.7</ele>
        <time>2021-01-08T15:35:15Z</time>
      </trkpt>
      <trkpt lat="46.82343" lon="5.86063">
        <ele>652.3</ele>
        <time>2021-01-08T15:35:19Z</time>
      </trkpt>
      <trkpt lat="46.82347" lon="5.86069">
        <ele>652.7</ele>
        <time>2021-01-08T15:35:23Z</time>
      </trkpt>
      <trkpt lat="46.8235" lon="5.86073">
        <ele>653.1</ele>
        <time>2021-01-08T15:35:27Z</time>
      </trkpt>
      <trkpt lat="46.82354" lon="5.86079">
        <ele>653.7</ele>
        <time>2021-01-08T15:35:32Z</time>
      </trkpt>
      <trkpt lat="46.82357" lon="5.86085">
        <ele>654.2</ele>
        <time>2021-01-08T15:35:37Z</time>
      </trkpt>
      <trkpt lat="46.82361" lon="5.8609">
        <ele>654.8</ele>
        <time>2021-01-08T15:35:42Z</time>
      </trkpt>
      <trkpt lat="46.82364" lon="5.86095">
        <ele>655.2</ele>
        <time>2021-01-08T15:35:47Z</time>
      </trkpt>
      <trkpt lat="46.82368" lon="5.86101">
        <ele>655.8</ele>
        <time>2021-01-08T15:35:52Z</time>
      </trkpt>
      <trkpt lat="46.82371" lon="5.86107">
        <ele>656.3</ele>
        <time>2021-01-08T15:35:57Z</time>
      </trkpt>
      <trkpt lat="46.82375" lon="5.86111">
        <ele>656.6</ele>
        <time>2021-01-08T15:36:02Z</time>
      </trkpt>
      <trkpt lat="46.82379" lon="5.86115">
        <ele>656.9</ele>
        <time>2021-01-08T15:36:06Z</time>
      </trkpt>
      <trkpt lat="46.82383" lon="5.8612">
        <ele>657.2</ele>
        <time>2021-01-08T15:36:11Z</time>
      </trkpt>
      <trkpt lat="46.82386" lon="5.86126">
        <ele>657.4</ele>
        <time>2021-01-08T15:36:16Z</time>
      </trkpt>
      <trkpt lat="46.82389" lon="5.86134">
        <ele>657.3</ele>
        <time>2021-01-08T15:36:21Z</time>
      </trkpt>
      <trkpt lat="46.82392" lon="5.8614">
        <ele>657.1</ele>
        <time>2021-01-08T15:36:25Z</time>
      </trkpt>
      <trkpt lat="46.82395" lon="5.86145">
        <ele>656.8</ele>
        <time>2021-01-08T15:36:29Z</time>
      </trkpt>
      <trkpt lat="46.82398" lon="5.8615">
        <ele>656.4</ele>
        <time>2021-01-08T15:36:34Z</time>
      </trkpt>
      <trkpt lat="46.82401" lon="5.86157">
        <ele>655.8</ele>
        <time>2021-01-08T15:36:39Z</time>
      </trkpt>
      <trkpt lat="46.824" lon="5.86163">
        <ele>654.5</ele>
        <time>2021-01-08T15:36:49Z</time>
      </trkpt>
      <trkpt lat="46.82395" lon="5.86166">
        <ele>654</ele>
        <time>2021-01-08T15:36:54Z</time>
      </trkpt>
      <trkpt lat="46.8239" lon="5.86168">
        <ele>653.7</ele>
        <time>2021-01-08T15:36:59Z</time>
      </trkpt>
      <trkpt lat="46.82385" lon="5.86171">
        <ele>653.5</ele>
        <time>2021-01-08T15:37:04Z</time>
      </trkpt>
      <trkpt lat="46.8238" lon="5.86174">
        <ele>653.2</ele>
        <time>2021-01-08T15:37:09Z</time>
      </trkpt>
      <trkpt lat="46.82376" lon="5.86178">
        <ele>653.5</ele>
        <time>2021-01-08T15:37:14Z</time>
      </trkpt>
      <trkpt lat="46.82374" lon="5.86185">
        <ele>654.7</ele>
        <time>2021-01-08T15:37:28Z</time>
      </trkpt>
      <trkpt lat="46.82369" lon="5.8619">
        <ele>654.2</ele>
        <time>2021-01-08T15:37:33Z</time>
      </trkpt>
      <trkpt lat="46.82367" lon="5.86195">
        <ele>653.6</ele>
        <time>2021-01-08T15:37:37Z</time>
      </trkpt>
      <trkpt lat="46.82365" lon="5.86203">
        <ele>652.7</ele>
        <time>2021-01-08T15:37:42Z</time>
      </trkpt>
      <trkpt lat="46.82364" lon="5.86211">
        <ele>652</ele>
        <time>2021-01-08T15:37:47Z</time>
      </trkpt>
      <trkpt lat="46.82362" lon="5.86217">
        <ele>651.6</ele>
        <time>2021-01-08T15:37:52Z</time>
      </trkpt>
      <trkpt lat="46.8236" lon="5.86224">
        <ele>651.6</ele>
        <time>2021-01-08T15:37:57Z</time>
      </trkpt>
      <trkpt lat="46.82359" lon="5.86232">
        <ele>651.7</ele>
        <time>2021-01-08T15:38:02Z</time>
      </trkpt>
      <trkpt lat="46.8236" lon="5.86239">
        <ele>652.3</ele>
        <time>2021-01-08T15:38:07Z</time>
      </trkpt>
      <trkpt lat="46.82361" lon="5.86246">
        <ele>652.9</ele>
        <time>2021-01-08T15:38:11Z</time>
      </trkpt>
      <trkpt lat="46.82362" lon="5.86253">
        <ele>653.5</ele>
        <time>2021-01-08T15:38:15Z</time>
      </trkpt>
      <trkpt lat="46.82362" lon="5.8626">
        <ele>653.7</ele>
        <time>2021-01-08T15:38:20Z</time>
      </trkpt>
      <trkpt lat="46.82362" lon="5.86267">
        <ele>654</ele>
        <time>2021-01-08T15:38:25Z</time>
      </trkpt>
      <trkpt lat="46.82361" lon="5.86274">
        <ele>654.2</ele>
        <time>2021-01-08T15:38:30Z</time>
      </trkpt>
      <trkpt lat="46.8236" lon="5.86281">
        <ele>653.9</ele>
        <time>2021-01-08T15:38:35Z</time>
      </trkpt>
      <trkpt lat="46.82359" lon="5.86288">
        <ele>653.5</ele>
        <time>2021-01-08T15:38:40Z</time>
      </trkpt>
      <trkpt lat="46.82359" lon="5.86296">
        <ele>653.2</ele>
        <time>2021-01-08T15:38:46Z</time>
      </trkpt>
      <trkpt lat="46.82359" lon="5.86303">
        <ele>652.6</ele>
        <time>2021-01-08T15:38:53Z</time>
      </trkpt>
      <trkpt lat="46.8236" lon="5.8631">
        <ele>651.2</ele>
        <time>2021-01-08T15:39:00Z</time>
      </trkpt>
      <trkpt lat="46.82359" lon="5.86317">
        <ele>650.3</ele>
        <time>2021-01-08T15:39:04Z</time>
      </trkpt>
      <trkpt lat="46.82359" lon="5.86326">
        <ele>649</ele>
        <time>2021-01-08T15:39:09Z</time>
      </trkpt>
      <trkpt lat="46.82358" lon="5.86334">
        <ele>648</ele>
        <time>2021-01-08T15:39:14Z</time>
      </trkpt>
      <trkpt lat="46.8236" lon="5.86341">
        <ele>647.1</ele>
        <time>2021-01-08T15:39:19Z</time>
      </trkpt>
      <trkpt lat="46.82359" lon="5.86348">
        <ele>646.7</ele>
        <time>2021-01-08T15:39:23Z</time>
      </trkpt>
      <trkpt lat="46.82356" lon="5.86354">
        <ele>646.5</ele>
        <time>2021-01-08T15:39:27Z</time>
      </trkpt>
      <trkpt lat="46.82353" lon="5.86358">
        <ele>646.4</ele>
        <time>2021-01-08T15:39:31Z</time>
      </trkpt>
      <trkpt lat="46.82348" lon="5.8636">
        <ele>646.6</ele>
        <time>2021-01-08T15:39:35Z</time>
      </trkpt>
      <trkpt lat="46.82343" lon="5.86363">
        <ele>646.8</ele>
        <time>2021-01-08T15:39:40Z</time>
      </trkpt>
      <trkpt lat="46.82339" lon="5.86366">
        <ele>646.6</ele>
        <time>2021-01-08T15:39:45Z</time>
      </trkpt>
      <trkpt lat="46.82334" lon="5.86368">
        <ele>646.2</ele>
        <time>2021-01-08T15:39:54Z</time>
      </trkpt>
      <trkpt lat="46.8233" lon="5.86371">
        <ele>645.8</ele>
        <time>2021-01-08T15:40:02Z</time>
      </trkpt>
      <trkpt lat="46.82325" lon="5.86373">
        <ele>644.9</ele>
        <time>2021-01-08T15:40:08Z</time>
      </trkpt>
      <trkpt lat="46.8232" lon="5.86375">
        <ele>644</ele>
        <time>2021-01-08T15:40:13Z</time>
      </trkpt>
      <trkpt lat="46.82316" lon="5.86375">
        <ele>643.7</ele>
        <time>2021-01-08T15:40:18Z</time>
      </trkpt>
      <trkpt lat="46.8231" lon="5.86375">
        <ele>643.6</ele>
        <time>2021-01-08T15:40:23Z</time>
      </trkpt>
      <trkpt lat="46.82306" lon="5.86375">
        <ele>643.8</ele>
        <time>2021-01-08T15:40:28Z</time>
      </trkpt>
      <trkpt lat="46.82301" lon="5.86375">
        <ele>643.7</ele>
        <time>2021-01-08T15:40:33Z</time>
      </trkpt>
      <trkpt lat="46.82297" lon="5.86378">
        <ele>643.6</ele>
        <time>2021-01-08T15:40:39Z</time>
      </trkpt>
      <trkpt lat="46.82292" lon="5.86382">
        <ele>644</ele>
        <time>2021-01-08T15:40:45Z</time>
      </trkpt>
      <trkpt lat="46.82289" lon="5.86386">
        <ele>644.8</ele>
        <time>2021-01-08T15:40:50Z</time>
      </trkpt>
      <trkpt lat="46.82288" lon="5.86393">
        <ele>645.2</ele>
        <time>2021-01-08T15:40:55Z</time>
      </trkpt>
      <trkpt lat="46.82287" lon="5.864">
        <ele>645.6</ele>
        <time>2021-01-08T15:41:01Z</time>
      </trkpt>
      <trkpt lat="46.82288" lon="5.86407">
        <ele>645.7</ele>
        <time>2021-01-08T15:41:06Z</time>
      </trkpt>
      <trkpt lat="46.82288" lon="5.86415">
        <ele>644.5</ele>
        <time>2021-01-08T15:41:12Z</time>
      </trkpt>
      <trkpt lat="46.82286" lon="5.86421">
        <ele>643.8</ele>
        <time>2021-01-08T15:41:18Z</time>
      </trkpt>
      <trkpt lat="46.82285" lon="5.86428">
        <ele>643</ele>
        <time>2021-01-08T15:41:23Z</time>
      </trkpt>
      <trkpt lat="46.82283" lon="5.86435">
        <ele>642.7</ele>
        <time>2021-01-08T15:41:28Z</time>
      </trkpt>
      <trkpt lat="46.82281" lon="5.86441">
        <ele>642.9</ele>
        <time>2021-01-08T15:41:33Z</time>
      </trkpt>
      <trkpt lat="46.82278" lon="5.86447">
        <ele>641.7</ele>
        <time>2021-01-08T15:41:38Z</time>
      </trkpt>
      <trkpt lat="46.82276" lon="5.86453">
        <ele>641.4</ele>
        <time>2021-01-08T15:41:43Z</time>
      </trkpt>
      <trkpt lat="46.82275" lon="5.8646">
        <ele>643.5</ele>
        <time>2021-01-08T15:41:48Z</time>
      </trkpt>
      <trkpt lat="46.82274" lon="5.86466">
        <ele>646.5</ele>
        <time>2021-01-08T15:41:53Z</time>
      </trkpt>
      <trkpt lat="46.82272" lon="5.86473">
        <ele>649.1</ele>
        <time>2021-01-08T15:41:58Z</time>
      </trkpt>
      <trkpt lat="46.82271" lon="5.8648">
        <ele>651</ele>
        <time>2021-01-08T15:42:03Z</time>
      </trkpt>
      <trkpt lat="46.82268" lon="5.86486">
        <ele>652.1</ele>
        <time>2021-01-08T15:42:09Z</time>
      </trkpt>
      <trkpt lat="46.82264" lon="5.8649">
        <ele>651.6</ele>
        <time>2021-01-08T15:42:14Z</time>
      </trkpt>
      <trkpt lat="46.82261" lon="5.86496">
        <ele>650.5</ele>
        <time>2021-01-08T15:42:20Z</time>
      </trkpt>
      <trkpt lat="46.82259" lon="5.86502">
        <ele>649.6</ele>
        <time>2021-01-08T15:42:25Z</time>
      </trkpt>
      <trkpt lat="46.82256" lon="5.86508">
        <ele>648.8</ele>
        <time>2021-01-08T15:42:30Z</time>
      </trkpt>
      <trkpt lat="46.82254" lon="5.86515">
        <ele>647.9</ele>
        <time>2021-01-08T15:42:35Z</time>
      </trkpt>
      <trkpt lat="46.82251" lon="5.8652">
        <ele>646.8</ele>
        <time>2021-01-08T15:42:40Z</time>
      </trkpt>
      <trkpt lat="46.82249" lon="5.86526">
        <ele>645.6</ele>
        <time>2021-01-08T15:42:46Z</time>
      </trkpt>
      <trkpt lat="46.82247" lon="5.86532">
        <ele>644.7</ele>
        <time>2021-01-08T15:42:51Z</time>
      </trkpt>
      <trkpt lat="46.82245" lon="5.86538">
        <ele>643.9</ele>
        <time>2021-01-08T15:42:56Z</time>
      </trkpt>
      <trkpt lat="46.82242" lon="5.86545">
        <ele>643.1</ele>
        <time>2021-01-08T15:43:01Z</time>
      </trkpt>
      <trkpt lat="46.8224" lon="5.86551">
        <ele>642.5</ele>
        <time>2021-01-08T15:43:06Z</time>
      </trkpt>
      <trkpt lat="46.82237" lon="5.86558">
        <ele>642</ele>
        <time>2021-01-08T15:43:12Z</time>
      </trkpt>
      <trkpt lat="46.82235" lon="5.86564">
        <ele>641.6</ele>
        <time>2021-01-08T15:43:17Z</time>
      </trkpt>
      <trkpt lat="46.82233" lon="5.8657">
        <ele>641.6</ele>
        <time>2021-01-08T15:43:22Z</time>
      </trkpt>
      <trkpt lat="46.82231" lon="5.86576">
        <ele>643.1</ele>
        <time>2021-01-08T15:43:41Z</time>
      </trkpt>
      <trkpt lat="46.8223" lon="5.86583">
        <ele>643.6</ele>
        <time>2021-01-08T15:43:47Z</time>
      </trkpt>
      <trkpt lat="46.8223" lon="5.8659">
        <ele>643.7</ele>
        <time>2021-01-08T15:43:51Z</time>
      </trkpt>
      <trkpt lat="46.82231" lon="5.86598">
        <ele>643.2</ele>
        <time>2021-01-08T15:43:56Z</time>
      </trkpt>
      <trkpt lat="46.82232" lon="5.86605">
        <ele>642.4</ele>
        <time>2021-01-08T15:44:01Z</time>
      </trkpt>
      <trkpt lat="46.82234" lon="5.86612">
        <ele>641.2</ele>
        <time>2021-01-08T15:44:07Z</time>
      </trkpt>
      <trkpt lat="46.82235" lon="5.86619">
        <ele>640.4</ele>
        <time>2021-01-08T15:44:12Z</time>
      </trkpt>
      <trkpt lat="46.82236" lon="5.86625">
        <ele>640.3</ele>
        <time>2021-01-08T15:44:17Z</time>
      </trkpt>
      <trkpt lat="46.82237" lon="5.86633">
        <ele>640.3</ele>
        <time>2021-01-08T15:44:22Z</time>
      </trkpt>
      <trkpt lat="46.82237" lon="5.8664">
        <ele>640.6</ele>
        <time>2021-01-08T15:44:29Z</time>
      </trkpt>
      <trkpt lat="46.8224" lon="5.86645">
        <ele>640.9</ele>
        <time>2021-01-08T15:44:42Z</time>
      </trkpt>
      <trkpt lat="46.8224" lon="5.86652">
        <ele>640.9</ele>
        <time>2021-01-08T15:44:49Z</time>
      </trkpt>
      <trkpt lat="46.82242" lon="5.86659">
        <ele>640.7</ele>
        <time>2021-01-08T15:44:54Z</time>
      </trkpt>
      <trkpt lat="46.82243" lon="5.86667">
        <ele>640</ele>
        <time>2021-01-08T15:44:59Z</time>
      </trkpt>
      <trkpt lat="46.82244" lon="5.86674">
        <ele>640</ele>
        <time>2021-01-08T15:45:21Z</time>
      </trkpt>
      <trkpt lat="46.82241" lon="5.86679">
        <ele>644</ele>
        <time>2021-01-08T15:47:18Z</time>
      </trkpt>
      <trkpt lat="46.8225" lon="5.86682">
        <ele>648.4</ele>
      </trkpt>
    </trkseg>
  </trk>
</gpx>